Tooele, Utah
Current Conditions -  °F | °C
As of 6:53 AM on Tuesday 21 Oct 2014 (Local Time) from KSLC Reporting Station
Broken Clouds Broken Clouds  
Wind Chill: 64°   Ceiling: 10000
Heat Index: 64°   Visibility: 10mi
Dew Point: 39°   Wind: 15mph
Humidity: 40%   Direction: 160°SSE
Pressure: 29.88"   Gusts: NA
Location:  40.53°N, 112.29°W
Report Text: KSLC 211253Z 16013KT 10SM FEW055 BKN100 18/04 A2988 RMK AO2 SLP075 T01780039
Loading
Personal Weather Stations






























Interactive Weather Map
Tropical Storm Tracking
New forecast layout! Learn more

10-Day Weather Forecast

Advertisements
Track Severe Weather on mobile